Time;durP1;ratioP1;P1;durP2;ratioP2;P2;SDS_P1;SDS_P2;PMS_P1;PMS_P2;Temp;Humidity;BMP_temperature;BMP_pressure;BME280_temperature;BME280_humidity;BME280_pressure;Samples;Min_cycle;Max_cycle;Signal;HPM_P1;HPM_P2
2023/09/19 00:01:32;;;;;;;5.50;1.97;;;;;;;;;;4992017;28;20343;-66
2023/09/19 00:03:58;;;;;;;5.38;1.83;;;;;;;;;;5009788;28;20673;-65
2023/09/19 00:06:26;;;;;;;5.32;1.95;;;;;;;;;;5009390;28;20022;-62
2023/09/19 00:08:51;;;;;;;3.93;1.77;;;;;;;;;;5009859;28;20068;-66
2023/09/19 00:11:16;;;;;;;3.00;1.73;;;;;;;;;;5010059;28;20385;-66
2023/09/19 00:13:43;;;;;;;5.10;1.75;;;;;;;;;;5009565;28;20030;-65
2023/09/19 00:16:10;;;;;;;4.25;2.30;;;;;;;;;;5008920;28;20041;-64
2023/09/19 00:18:36;;;;;;;5.80;1.83;;;;;;;;;;5009369;28;20037;-64
2023/09/19 00:21:01;;;;;;;4.53;1.92;;;;;;;;;;5009640;28;20378;-66
2023/09/19 00:23:28;;;;;;;7.60;1.90;;;;;;;;;;5009563;28;20109;-65
2023/09/19 00:25:57;;;;;;;7.97;2.17;;;;;;;;;;5009819;28;20029;-62
2023/09/19 00:28:22;;;;;;;4.68;2.05;;;;;;;;;;5009458;28;20160;-65
2023/09/19 00:30:49;;;;;;;5.30;2.05;;;;;;;;;;5009441;28;20565;-66
2023/09/19 00:33:16;;;;;;;6.88;2.28;;;;;;;;;;5007121;28;20489;-68
2023/09/19 00:35:47;;;;;;;7.82;2.00;;;;;;;;;;5008919;28;20030;-66
2023/09/19 00:38:16;;;;;;;6.35;2.20;;;;;;;;;;5008803;28;20422;-65
2023/09/19 00:40:41;;;;;;;;;;;;;;;;;;5009716;28;20021;-66
2023/09/19 00:43:08;;;;;;;6.47;2.00;;;;;;;;;;5008607;28;19932;-62
2023/09/19 00:45:33;;;;;;;7.80;2.22;;;;;;;;;;5009028;28;20021;-66
2023/09/19 00:48:03;;;;;;;5.13;2.03;;;;;;;;;;5009061;28;20040;-66
2023/09/19 00:50:28;;;;;;;6.43;1.80;;;;;;;;;;5001862;28;20099;-66
2023/09/19 00:52:57;;;;;;;7.43;2.10;;;;;;;;;;5009232;28;20025;-67
2023/09/19 00:55:23;;;;;;;8.23;2.25;;;;;;;;;;5012091;28;20025;-66
2023/09/19 00:57:49;;;;;;;7.10;2.30;;;;;;;;;;5012967;28;20025;-66
2023/09/19 01:00:15;;;;;;;7.57;1.75;;;;;;;;;;5012936;28;20029;-64
2023/09/19 01:02:42;;;;;;;3.40;1.88;;;;;;;;;;5011701;28;20030;-66
2023/09/19 01:05:08;;;;;;;4.60;2.00;;;;;;;;;;5002892;28;20522;-64
2023/09/19 01:07:36;;;;;;;5.80;1.98;;;;;;;;;;5012650;28;20022;-65
2023/09/19 01:10:09;;;;;;;6.70;2.72;;;;;;;;;;5013486;28;20105;-66
2023/09/19 01:12:40;;;;;;;9.25;2.40;;;;;;;;;;5009713;28;20026;-68
2023/09/19 01:15:27;;;;;;;8.32;2.38;;;;;;;;;;5011647;28;20017;-68
2023/09/19 01:18:10;;;;;;;6.07;2.28;;;;;;;;;;5004560;28;20030;-63
2023/09/19 01:20:35;;;;;;;8.45;2.58;;;;;;;;;;5012011;28;20520;-65
2023/09/19 01:23:04;;;;;;;5.13;2.70;;;;;;;;;;5012487;28;20024;-68
2023/09/19 01:25:47;;;;;;;11.57;2.60;;;;;;;;;;5004585;28;20287;-66
2023/09/19 01:28:22;;;;;;;10.63;2.65;;;;;;;;;;5011629;28;20037;-67
2023/09/19 01:30:51;;;;;;;8.65;2.35;;;;;;;;;;5012561;28;20406;-66
2023/09/19 01:33:16;;;;;;;4.30;2.22;;;;;;;;;;5012036;28;20028;-63
2023/09/19 01:35:42;;;;;;;4.55;2.25;;;;;;;;;;5011419;28;20014;-66
2023/09/19 01:38:11;;;;;;;5.85;2.25;;;;;;;;;;5011756;28;20018;-66
2023/09/19 01:40:40;;;;;;;12.57;2.35;;;;;;;;;;5012464;28;20485;-63
2023/09/19 01:43:05;;;;;;;10.35;2.22;;;;;;;;;;5013358;28;20041;-67
2023/09/19 01:45:31;;;;;;;6.67;2.00;;;;;;;;;;5014815;28;20048;-66
2023/09/19 01:47:59;;;;;;;8.43;2.00;;;;;;;;;;5023294;28;20301;-66
2023/09/19 01:50:25;;;;;;;5.60;1.83;;;;;;;;;;5018015;28;20030;-66
2023/09/19 01:53:09;;;;;;;4.93;2.05;;;;;;;;;;5013266;28;20569;-65
2023/09/19 01:55:37;;;;;;;4.18;1.52;;;;;;;;;;5006920;28;20021;-65
2023/09/19 01:58:17;;;;;;;5.60;1.73;;;;;;;;;;5012726;28;20030;-64
2023/09/19 02:00:44;;;;;;;3.45;1.70;;;;;;;;;;5008812;28;20026;-66
2023/09/19 02:03:11;;;;;;;6.53;1.80;;;;;;;;;;5012205;28;20076;-67
2023/09/19 02:05:37;;;;;;;5.63;1.70;;;;;;;;;;5010908;28;20068;-66
2023/09/19 02:08:02;;;;;;;4.50;1.50;;;;;;;;;;5011290;28;20269;-67
2023/09/19 02:10:28;;;;;;;5.20;1.58;;;;;;;;;;5006938;28;20158;-67
2023/09/19 02:12:53;;;;;;;2.30;1.25;;;;;;;;;;5011954;28;20094;-66
2023/09/19 02:15:18;;;;;;;6.93;1.50;;;;;;;;;;5012595;28;20049;-66
2023/09/19 02:17:45;;;;;;;7.97;1.48;;;;;;;;;;5011614;28;20018;-65
2023/09/19 02:20:14;;;;;;;6.78;1.27;;;;;;;;;;5011458;28;20072;-67
2023/09/19 02:22:39;;;;;;;;;;;;;;;;;;5012324;28;20049;-66
2023/09/19 02:25:05;;;;;;;5.78;2.03;;;;;;;;;;5011476;28;19909;-67
2023/09/19 02:27:30;;;;;;;3.72;1.42;;;;;;;;;;5011566;28;20026;-65
2023/09/19 02:29:56;;;;;;;3.65;1.33;;;;;;;;;;5011851;28;20486;-67
2023/09/19 02:32:21;;;;;;;5.13;1.40;;;;;;;;;;5011229;28;20120;-66
2023/09/19 02:34:46;;;;;;;7.63;1.35;;;;;;;;;;5010731;28;20050;-66
2023/09/19 02:37:13;;;;;;;4.28;1.60;;;;;;;;;;4994926;28;20501;-66
2023/09/19 02:39:39;;;;;;;5.07;1.60;;;;;;;;;;5011093;28;20462;-66
2023/09/19 02:42:05;;;;;;;3.63;1.50;;;;;;;;;;5010039;28;20186;-66
2023/09/19 02:44:30;;;;;;;2.70;1.33;;;;;;;;;;5011082;28;20481;-66
2023/09/19 02:46:57;;;;;;;3.53;1.60;;;;;;;;;;5010068;28;20028;-68
2023/09/19 02:49:22;;;;;;;5.25;1.35;;;;;;;;;;5010890;28;20014;-66
2023/09/19 02:51:47;;;;;;;3.42;1.50;;;;;;;;;;5011100;28;20092;-67
2023/09/19 02:54:13;;;;;;;3.97;1.60;;;;;;;;;;5010431;28;20036;-64
2023/09/19 02:56:38;;;;;;;3.75;1.52;;;;;;;;;;5011090;28;20025;-67
2023/09/19 02:59:04;;;;;;;9.63;1.73;;;;;;;;;;5010574;28;20112;-67
2023/09/19 03:01:29;;;;;;;3.42;1.27;;;;;;;;;;5011129;28;20045;-67
2023/09/19 03:03:54;;;;;;;3.83;1.40;;;;;;;;;;5011281;28;20440;-66
2023/09/19 03:06:20;;;;;;;2.92;1.38;;;;;;;;;;5010201;28;20034;-66
2023/09/19 03:08:46;;;;;;;11.57;1.50;;;;;;;;;;5010560;28;20473;-66
2023/09/19 03:11:12;;;;;;;3.63;1.20;;;;;;;;;;5010722;28;20026;-68
2023/09/19 03:13:38;;;;;;;7.20;1.42;;;;;;;;;;5009831;28;20017;-67
2023/09/19 03:16:06;;;;;;;6.05;1.67;;;;;;;;;;5009835;28;20080;-66
2023/09/19 03:18:32;;;;;;;5.63;1.55;;;;;;;;;;5009567;28;20481;-67
2023/09/19 03:20:59;;;;;;;4.05;1.30;;;;;;;;;;5010625;28;20040;-67
2023/09/19 03:23:25;;;;;;;4.55;1.60;;;;;;;;;;5010658;28;20028;-69
2023/09/19 03:25:52;;;;;;;3.97;1.40;;;;;;;;;;5010683;28;20032;-68
2023/09/19 03:28:17;;;;;;;4.85;1.35;;;;;;;;;;5010538;28;20030;-67
2023/09/19 03:30:43;;;;;;;6.60;1.30;;;;;;;;;;5010359;28;20481;-66
2023/09/19 03:33:10;;;;;;;3.88;1.40;;;;;;;;;;5009656;28;20021;-66
2023/09/19 03:35:36;;;;;;;7.97;1.20;;;;;;;;;;5009022;28;20022;-67
2023/09/19 03:38:02;;;;;;;2.30;1.10;;;;;;;;;;5010264;28;20162;-66
2023/09/19 03:40:28;;;;;;;3.83;1.20;;;;;;;;;;5010384;28;20029;-66
2023/09/19 03:42:53;;;;;;;5.32;1.30;;;;;;;;;;5010297;28;20018;-64
2023/09/19 03:45:18;;;;;;;3.67;1.20;;;;;;;;;;5010033;28;20022;-65
2023/09/19 03:47:46;;;;;;;3.00;1.33;;;;;;;;;;5010505;28;20029;-68
2023/09/19 03:50:15;;;;;;;5.38;1.20;;;;;;;;;;5009104;28;20018;-67
2023/09/19 03:52:40;;;;;;;5.45;1.40;;;;;;;;;;5010146;28;20042;-66
2023/09/19 03:55:06;;;;;;;3.15;1.15;;;;;;;;;;5009822;28;20018;-68
2023/09/19 03:57:31;;;;;;;3.78;1.27;;;;;;;;;;5010127;28;20042;-65
2023/09/19 03:59:56;;;;;;;3.85;1.30;;;;;;;;;;5010127;28;20022;-65
2023/09/19 04:02:22;;;;;;;2.25;1.30;;;;;;;;;;5009579;28;20084;-66
2023/09/19 04:04:51;;;;;;;9.20;1.73;;;;;;;;;;5008896;28;20038;-64
2023/09/19 04:07:16;;;;;;;;;;;;;;;;;;5009785;28;20022;-67
2023/09/19 04:09:41;;;;;;;4.23;1.43;;;;;;;;;;5009804;28;19916;-65
2023/09/19 04:12:08;;;;;;;4.70;1.20;;;;;;;;;;5009543;28;20290;-66
2023/09/19 04:14:33;;;;;;;4.35;1.40;;;;;;;;;;5009281;28;20574;-65
2023/09/19 04:16:59;;;;;;;3.53;1.70;;;;;;;;;;5006282;28;20093;-65
2023/09/19 04:19:25;;;;;;;4.32;1.23;;;;;;;;;;5008744;28;20056;-67
2023/09/19 04:21:50;;;;;;;4.55;1.98;;;;;;;;;;5010140;28;20154;-61
2023/09/19 04:24:15;;;;;;;4.40;1.30;;;;;;;;;;5009590;28;20393;-64
2023/09/19 04:26:42;;;;;;;3.97;1.40;;;;;;;;;;5010435;28;20354;-63
2023/09/19 04:29:10;;;;;;;5.07;1.40;;;;;;;;;;5009200;28;20091;-67
2023/09/19 04:31:37;;;;;;;6.75;1.60;;;;;;;;;;5007785;28;20033;-64
2023/09/19 04:34:03;;;;;;;5.22;1.60;;;;;;;;;;5009022;28;20033;-62
2023/09/19 04:36:28;;;;;;;3.55;1.40;;;;;;;;;;5008852;28;20025;-65
2023/09/19 04:38:53;;;;;;;2.67;1.20;;;;;;;;;;5009027;28;20101;-65
2023/09/19 04:41:18;;;;;;;3.38;1.23;;;;;;;;;;5003422;28;20310;-66
2023/09/19 04:43:44;;;;;;;2.58;1.17;;;;;;;;;;5007634;28;20024;-66
2023/09/19 04:46:14;;;;;;;2.78;1.30;;;;;;;;;;5008988;28;20026;-66
2023/09/19 04:48:39;;;;;;;3.72;1.45;;;;;;;;;;5009565;28;20021;-67
2023/09/19 04:51:05;;;;;;;3.05;1.38;;;;;;;;;;5006385;28;20034;-67
2023/09/19 04:53:30;;;;;;;3.65;1.30;;;;;;;;;;5007360;28;20120;-65
2023/09/19 04:55:55;;;;;;;4.72;1.30;;;;;;;;;;5008202;28;20493;-66
2023/09/19 04:58:21;;;;;;;3.83;1.48;;;;;;;;;;5035295;23;20264;-68
2023/09/19 05:00:46;;;;;;;2.75;1.42;;;;;;;;;;5027166;28;20087;-66
2023/09/19 05:03:12;;;;;;;4.85;1.33;;;;;;;;;;5021949;28;20108;-67
2023/09/19 05:05:38;;;;;;;5.80;1.60;;;;;;;;;;5025307;28;20017;-68
2023/09/19 05:08:05;;;;;;;4.03;1.20;;;;;;;;;;5026910;28;20034;-66
2023/09/19 05:10:30;;;;;;;3.47;1.40;;;;;;;;;;5023516;28;20083;-67
2023/09/19 05:12:56;;;;;;;2.20;1.10;;;;;;;;;;5018978;28;20037;-67
2023/09/19 05:15:21;;;;;;;3.50;1.23;;;;;;;;;;5026765;28;20103;-68
2023/09/19 05:17:54;;;;;;;2.97;1.40;;;;;;;;;;5023245;28;20017;-67
2023/09/19 05:20:37;;;;;;;3.28;1.58;;;;;;;;;;5026951;28;20090;-68
2023/09/19 05:23:05;;;;;;;4.95;1.90;;;;;;;;;;5027798;28;20025;-68
2023/09/19 05:25:37;;;;;;;5.20;1.92;;;;;;;;;;5026047;28;20104;-69
2023/09/19 05:28:03;;;;;;;8.10;1.52;;;;;;;;;;5025309;28;20029;-67
2023/09/19 05:30:29;;;;;;;4.82;1.35;;;;;;;;;;5026387;28;20033;-67
2023/09/19 05:32:54;;;;;;;13.00;1.70;;;;;;;;;;5019726;28;20542;-65
2023/09/19 05:35:21;;;;;;;4.28;1.33;;;;;;;;;;5023447;28;20025;-68
2023/09/19 05:37:47;;;;;;;5.93;1.63;;;;;;;;;;5019798;28;20022;-68
2023/09/19 05:40:14;;;;;;;4.45;1.50;;;;;;;;;;5024444;28;20021;-69
2023/09/19 05:42:41;;;;;;;3.35;1.30;;;;;;;;;;5027935;28;20040;-68
2023/09/19 05:45:06;;;;;;;9.07;1.83;;;;;;;;;;5029264;28;20021;-69
2023/09/19 05:47:32;;;;;;;5.60;1.48;;;;;;;;;;5030277;28;20397;-68
2023/09/19 05:49:57;;;;;;;4.57;1.30;;;;;;;;;;5030362;28;20100;-66
2023/09/19 05:52:22;;;;;;;4.35;1.40;;;;;;;;;;5026457;28;20451;-68
2023/09/19 05:54:49;;;;;;;4.70;1.40;;;;;;;;;;5030135;28;20534;-67
2023/09/19 05:57:15;;;;;;;3.75;1.15;;;;;;;;;;5011936;28;20108;-68
2023/09/19 05:59:42;;;;;;;4.97;1.60;;;;;;;;;;5028191;28;20120;-68
2023/09/19 06:02:09;;;;;;;3.25;1.25;;;;;;;;;;5029427;28;20077;-67
2023/09/19 06:04:35;;;;;;;8.27;1.48;;;;;;;;;;5030365;28;20020;-68
2023/09/19 06:07:00;;;;;;;5.88;1.35;;;;;;;;;;5029627;28;20013;-68
2023/09/19 06:09:27;;;;;;;6.32;1.65;;;;;;;;;;5029154;28;20097;-67
2023/09/19 06:11:53;;;;;;;4.05;1.35;;;;;;;;;;5028880;28;20112;-69
2023/09/19 06:14:18;;;;;;;5.97;1.48;;;;;;;;;;5029016;28;20104;-68
2023/09/19 06:16:44;;;;;;;8.27;1.35;;;;;;;;;;5030255;28;20026;-67
2023/09/19 06:19:09;;;;;;;4.57;1.27;;;;;;;;;;5030140;28;20311;-67
2023/09/19 06:21:35;;;;;;;4.47;1.10;;;;;;;;;;5032153;28;20025;-67
2023/09/19 06:24:01;;;;;;;5.95;1.38;;;;;;;;;;5028885;28;20065;-66
2023/09/19 06:26:26;;;;;;;7.07;1.48;;;;;;;;;;5028468;28;20150;-67
2023/09/19 06:28:52;;;;;;;4.15;1.45;;;;;;;;;;5024248;28;20116;-69
2023/09/19 06:31:18;;;;;;;5.22;1.50;;;;;;;;;;5028163;28;20029;-68
2023/09/19 06:33:43;;;;;;;3.17;1.27;;;;;;;;;;5027151;28;20032;-66
2023/09/19 06:36:08;;;;;;;7.65;1.25;;;;;;;;;;5022691;28;20048;-68
2023/09/19 06:38:35;;;;;;;5.18;1.52;;;;;;;;;;5029462;28;20533;-67
2023/09/19 06:41:04;;;;;;;2.38;1.10;;;;;;;;;;5029094;28;20017;-68
2023/09/19 06:43:30;;;;;;;;;;;;;;;;;;5029805;28;20024;-70
2023/09/19 06:45:56;;;;;;;4.93;1.35;;;;;;;;;;5028876;28;20234;-68
2023/09/19 06:48:21;;;;;;;7.20;1.42;;;;;;;;;;5023230;28;20499;-69
2023/09/19 06:50:47;;;;;;;4.05;1.17;;;;;;;;;;5029001;28;20049;-66
2023/09/19 06:53:13;;;;;;;7.80;1.40;;;;;;;;;;5022646;28;20098;-68
2023/09/19 06:55:38;;;;;;;3.90;1.42;;;;;;;;;;5030843;28;20048;-69
2023/09/19 06:58:06;;;;;;;2.53;1.25;;;;;;;;;;5029251;28;20033;-68
2023/09/19 07:00:33;;;;;;;3.42;1.20;;;;;;;;;;5016898;28;20338;-70
2023/09/19 07:03:00;;;;;;;3.25;1.05;;;;;;;;;;5029046;28;20025;-68
2023/09/19 07:05:27;;;;;;;4.55;1.40;;;;;;;;;;5028863;28;20048;-68
2023/09/19 07:07:54;;;;;;;5.18;1.10;;;;;;;;;;5026415;28;20025;-68
2023/09/19 07:10:20;;;;;;;2.75;1.10;;;;;;;;;;5027236;28;20088;-69
2023/09/19 07:12:45;;;;;;;3.35;1.00;;;;;;;;;;5028942;28;20479;-69
2023/09/19 07:15:10;;;;;;;11.50;1.95;;;;;;;;;;5028784;28;20065;-68
2023/09/19 07:17:36;;;;;;;6.05;1.73;;;;;;;;;;5022495;28;20083;-68
2023/09/19 07:20:05;;;;;;;7.00;1.30;;;;;;;;;;5028735;28;20022;-67
2023/09/19 07:22:32;;;;;;;3.85;1.17;;;;;;;;;;5028774;28;20108;-67
2023/09/19 07:24:57;;;;;;;7.28;1.50;;;;;;;;;;5026780;28;20093;-67
2023/09/19 07:27:23;;;;;;;3.13;1.17;;;;;;;;;;5023897;28;20156;-68
2023/09/19 07:29:48;;;;;;;3.85;1.27;;;;;;;;;;5026231;28;20277;-68
2023/09/19 07:32:13;;;;;;;7.13;1.90;;;;;;;;;;5022479;28;20092;-69
2023/09/19 07:34:40;;;;;;;9.32;1.30;;;;;;;;;;5028512;28;20013;-69
2023/09/19 07:37:06;;;;;;;7.18;1.42;;;;;;;;;;5027833;28;20028;-66
2023/09/19 07:39:31;;;;;;;6.05;1.35;;;;;;;;;;5028691;28;20013;-67
2023/09/19 07:41:57;;;;;;;6.20;1.42;;;;;;;;;;5028333;28;20036;-67
2023/09/19 07:44:22;;;;;;;3.47;1.15;;;;;;;;;;5028238;28;20044;-67
2023/09/19 07:46:50;;;;;;;5.78;1.52;;;;;;;;;;5027828;28;20349;-68
2023/09/19 07:49:17;;;;;;;4.50;1.20;;;;;;;;;;5027960;28;20025;-66
2023/09/19 07:51:46;;;;;;;3.88;1.10;;;;;;;;;;5026062;28;20025;-67
2023/09/19 07:54:11;;;;;;;;;;;;;;;;;;5025295;28;20681;-68
2023/09/19 07:56:37;;;;;;;6.90;1.50;;;;;;;;;;5027742;28;19909;-65
2023/09/19 07:59:02;;;;;;;4.93;1.48;;;;;;;;;;5028046;28;20030;-68
2023/09/19 08:01:27;;;;;;;6.43;1.67;;;;;;;;;;5024072;28;20018;-67
2023/09/19 08:03:53;;;;;;;4.32;1.10;;;;;;;;;;5028005;28;20120;-64
2023/09/19 08:06:20;;;;;;;6.75;1.58;;;;;;;;;;5021142;28;20026;-69
2023/09/19 08:08:45;;;;;;;4.75;1.40;;;;;;;;;;5027685;28;20044;-68
2023/09/19 08:11:12;;;;;;;4.15;1.25;;;;;;;;;;5027614;28;20029;-70
2023/09/19 08:13:49;;;;;;;7.32;1.23;;;;;;;;;;5028067;28;20125;-68
2023/09/19 08:16:14;;;;;;;5.13;1.55;;;;;;;;;;5018541;28;20022;-67
2023/09/19 08:18:40;;;;;;;5.63;1.27;;;;;;;;;;5025890;28;20017;-68
2023/09/19 08:21:10;;;;;;;6.07;1.38;;;;;;;;;;5027220;28;20028;-68
2023/09/19 08:23:36;;;;;;;7.55;1.65;;;;;;;;;;5025113;28;20041;-66
2023/09/19 08:26:06;;;;;;;3.65;1.27;;;;;;;;;;5027329;28;20033;-69
2023/09/19 08:28:31;;;;;;;3.38;1.15;;;;;;;;;;5022598;28;20032;-68
2023/09/19 08:31:01;;;;;;;4.85;1.48;;;;;;;;;;5027531;28;20026;-67
2023/09/19 08:33:26;;;;;;;3.13;1.20;;;;;;;;;;5022855;28;20041;-66
2023/09/19 08:35:51;;;;;;;7.38;1.35;;;;;;;;;;5019568;28;20040;-70
2023/09/19 08:38:17;;;;;;;5.50;1.50;;;;;;;;;;5026940;28;20036;-68
2023/09/19 08:40:43;;;;;;;3.78;1.20;;;;;;;;;;5027635;28;20021;-68
2023/09/19 08:43:08;;;;;;;8.73;1.58;;;;;;;;;;5020684;28;20033;-67
2023/09/19 08:45:34;;;;;;;3.90;2.00;;;;;;;;;;5027406;28;20112;-70
2023/09/19 08:48:13;;;;;;;4.93;1.13;;;;;;;;;;5025469;28;20480;-67
2023/09/19 08:50:38;;;;;;;;;;;;;;;;;;5015034;28;20053;-66
2023/09/19 08:53:09;;;;;;;7.80;1.73;;;;;;;;;;5026049;28;19952;-68
2023/09/19 08:55:34;;;;;;;2.88;1.13;;;;;;;;;;5019131;28;20163;-68
2023/09/19 08:58:01;;;;;;;3.58;1.33;;;;;;;;;;5006458;28;20324;-68
2023/09/19 09:00:27;;;;;;;5.82;1.20;;;;;;;;;;5026285;28;20105;-69
2023/09/19 09:02:54;;;;;;;3.17;1.10;;;;;;;;;;5009127;28;20112;-68
2023/09/19 09:05:22;;;;;;;3.90;1.00;;;;;;;;;;5026477;28;20056;-68
2023/09/19 09:07:50;;;;;;;7.93;1.20;;;;;;;;;;5021581;28;20426;-68
2023/09/19 09:10:15;;;;;;;4.25;1.13;;;;;;;;;;5023514;28;20092;-68
2023/09/19 09:12:43;;;;;;;6.75;1.35;;;;;;;;;;5020340;28;20029;-69
2023/09/19 09:15:11;;;;;;;14.07;2.10;;;;;;;;;;5020952;28;20044;-65
2023/09/19 09:17:37;;;;;;;3.88;1.27;;;;;;;;;;5022183;28;20029;-67
2023/09/19 09:20:03;;;;;;;12.57;1.42;;;;;;;;;;5023103;28;20749;-65
2023/09/19 09:22:29;;;;;;;11.90;1.40;;;;;;;;;;5022538;28;20151;-66
2023/09/19 09:24:57;;;;;;;10.80;1.25;;;;;;;;;;5022460;28;20120;-66
2023/09/19 09:27:23;;;;;;;7.35;1.70;;;;;;;;;;5023448;28;20052;-68
2023/09/19 09:29:49;;;;;;;6.53;1.48;;;;;;;;;;5022632;28;20879;-66
2023/09/19 09:32:19;;;;;;;4.22;1.23;;;;;;;;;;5021657;28;20087;-68
2023/09/19 09:34:45;;;;;;;4.55;1.40;;;;;;;;;;5022811;28;20072;-68
2023/09/19 09:37:20;;;;;;;5.80;1.40;;;;;;;;;;5023511;28;20028;-67
2023/09/19 09:39:51;;;;;;;4.97;1.40;;;;;;;;;;5023494;28;20554;-67
2023/09/19 09:42:31;;;;;;;5.25;1.55;;;;;;;;;;5023545;28;20033;-67
2023/09/19 09:45:16;;;;;;;4.90;1.27;;;;;;;;;;5021662;28;20025;-67
2023/09/19 09:47:57;;;;;;;5.70;1.50;;;;;;;;;;5023926;28;20536;-68
2023/09/19 09:50:29;;;;;;;4.63;1.27;;;;;;;;;;5023672;28;20017;-69
2023/09/19 09:53:06;;;;;;;5.80;1.25;;;;;;;;;;5022070;28;20022;-69
2023/09/19 09:55:51;;;;;;;5.75;1.25;;;;;;;;;;5022412;28;20041;-67
2023/09/19 09:58:18;;;;;;;7.63;2.10;;;;;;;;;;5024214;28;20392;-68
2023/09/19 10:00:57;;;;;;;4.50;1.70;;;;;;;;;;5022929;28;20055;-66
2023/09/19 10:03:31;;;;;;;9.85;1.58;;;;;;;;;;5024044;28;20143;-69
2023/09/19 10:05:58;;;;;;;6.07;1.25;;;;;;;;;;5023093;28;20029;-67
2023/09/19 10:08:23;;;;;;;12.05;2.00;;;;;;;;;;5023721;28;20548;-68
2023/09/19 10:11:03;;;;;;;4.68;1.13;;;;;;;;;;5023343;28;20105;-69
2023/09/19 10:13:30;;;;;;;5.38;1.42;;;;;;;;;;5023390;28;20643;-67
2023/09/19 10:15:58;;;;;;;8.65;1.70;;;;;;;;;;5023723;28;20021;-68
2023/09/19 10:18:23;;;;;;;6.78;1.50;;;;;;;;;;5023876;28;20109;-67
2023/09/19 10:20:49;;;;;;;10.40;1.63;;;;;;;;;;5022912;28;20112;-65
2023/09/19 10:23:22;;;;;;;8.05;1.58;;;;;;;;;;5025215;28;20373;-68
2023/09/19 10:25:47;;;;;;;6.80;1.48;;;;;;;;;;5022770;28;20124;-67
2023/09/19 10:28:13;;;;;;;7.85;1.48;;;;;;;;;;5022489;28;20112;-67
2023/09/19 10:30:47;;;;;;;4.65;1.33;;;;;;;;;;5022577;28;20081;-66
2023/09/19 10:33:16;;;;;;;6.07;1.40;;;;;;;;;;5021524;28;20504;-67
2023/09/19 10:35:42;;;;;;;5.97;1.50;;;;;;;;;;5021010;28;20029;-66
2023/09/19 10:38:10;;;;;;;9.45;1.98;;;;;;;;;;5020756;28;20106;-68
2023/09/19 10:40:36;;;;;;;6.97;1.52;;;;;;;;;;5021482;28;20097;-67
2023/09/19 10:43:05;;;;;;;6.35;2.08;;;;;;;;;;5021857;28;20579;-68
2023/09/19 10:45:31;;;;;;;8.68;1.73;;;;;;;;;;5019742;28;20037;-67
2023/09/19 10:47:57;;;;;;;5.88;1.65;;;;;;;;;;5021957;28;20029;-67
2023/09/19 10:50:23;;;;;;;7.15;1.35;;;;;;;;;;5019732;28;20377;-69
2023/09/19 10:52:58;;;;;;;5.97;1.55;;;;;;;;;;5022619;28;20135;-68
2023/09/19 10:55:24;;;;;;;8.30;1.90;;;;;;;;;;5021217;28;20009;-69
2023/09/19 10:57:49;;;;;;;7.00;1.60;;;;;;;;;;5021300;28;20025;-70
2023/09/19 11:00:27;;;;;;;9.23;1.52;;;;;;;;;;5025498;23;20563;-68
2023/09/19 11:03:30;;;;;;;4.10;1.20;;;;;;;;;;5010695;28;20045;-67
2023/09/19 11:06:04;;;;;;;8.43;1.73;;;;;;;;;;4923605;29;20039;-66
2023/09/19 11:08:30;;;;;;;7.18;1.58;;;;;;;;;;5002041;28;20030;-67
2023/09/19 11:10:55;;;;;;;3.97;1.20;;;;;;;;;;5008780;28;20041;-67
2023/09/19 11:13:37;;;;;;;4.55;1.38;;;;;;;;;;5013662;28;20021;-63
2023/09/19 11:16:03;;;;;;;9.05;1.80;;;;;;;;;;5012383;28;20037;-64
2023/09/19 11:18:41;;;;;;;5.25;1.85;;;;;;;;;;5012431;28;20013;-67
2023/09/19 11:21:25;;;;;;;8.37;1.80;;;;;;;;;;5010611;28;20112;-64
2023/09/19 11:24:12;;;;;;;7.15;1.30;;;;;;;;;;5012705;28;20120;-67
2023/09/19 11:26:43;;;;;;;5.93;1.50;;;;;;;;;;5011959;28;20033;-65
2023/09/19 11:29:24;;;;;;;7.72;1.98;;;;;;;;;;4993178;28;20029;-64
2023/09/19 11:31:51;;;;;;;7.53;1.65;;;;;;;;;;5011186;28;20079;-65
2023/09/19 11:34:35;;;;;;;7.03;1.80;;;;;;;;;;5009699;28;20496;-67
2023/09/19 11:37:01;;;;;;;7.18;1.58;;;;;;;;;;5010759;28;20549;-62
2023/09/19 11:39:27;;;;;;;6.00;1.33;;;;;;;;;;5008097;28;20026;-65
2023/09/19 11:41:56;;;;;;;7.95;1.70;;;;;;;;;;5012434;28;20061;-65
2023/09/19 11:44:31;;;;;;;5.80;1.60;;;;;;;;;;4990238;28;20243;-67
2023/09/19 11:46:58;;;;;;;8.27;1.60;;;;;;;;;;5011900;28;20025;-64
2023/09/19 11:49:29;;;;;;;10.23;1.70;;;;;;;;;;5010258;28;20026;-65
2023/09/19 11:51:55;;;;;;;4.25;1.40;;;;;;;;;;5008655;28;20025;-66
2023/09/19 11:54:24;;;;;;;5.05;1.80;;;;;;;;;;5015452;28;20469;-68
2023/09/19 11:56:57;;;;;;;4.53;1.30;;;;;;;;;;5012446;28;20137;-64
2023/09/19 11:59:32;;;;;;;7.20;1.40;;;;;;;;;;5012653;28;20314;-68
2023/09/19 12:02:00;;;;;;;8.05;1.35;;;;;;;;;;5012132;28;20025;-66
2023/09/19 12:04:37;;;;;;;9.32;1.83;;;;;;;;;;5006092;28;20021;-68
2023/09/19 12:07:02;;;;;;;10.00;1.60;;;;;;;;;;5011862;28;20032;-67
2023/09/19 12:09:28;;;;;;;9.43;1.73;;;;;;;;;;5012817;28;20026;-67
2023/09/19 12:11:53;;;;;;;8.50;1.83;;;;;;;;;;5011206;28;20072;-66
2023/09/19 12:14:22;;;;;;;7.82;1.95;;;;;;;;;;5009618;28;20036;-67
2023/09/19 12:16:55;;;;;;;4.03;1.60;;;;;;;;;;5012436;28;20034;-69
2023/09/19 12:19:21;;;;;;;7.13;2.92;;;;;;;;;;5016608;28;20025;-65
2023/09/19 12:22:09;;;;;;;9.00;1.70;;;;;;;;;;5011623;28;20021;-70
2023/09/19 12:24:38;;;;;;;5.55;1.50;;;;;;;;;;5014650;28;20045;-65
2023/09/19 12:27:05;;;;;;;10.32;1.83;;;;;;;;;;5013974;28;20052;-67
2023/09/19 12:29:31;;;;;;;8.15;2.13;;;;;;;;;;5009829;28;20572;-65
2023/09/19 12:31:57;;;;;;;8.75;1.52;;;;;;;;;;4990912;28;20136;-67
2023/09/19 12:34:26;;;;;;;4.20;1.50;;;;;;;;;;5009830;28;20029;-64
2023/09/19 12:37:03;;;;;;;6.20;1.80;;;;;;;;;;5014096;28;20095;-64
2023/09/19 12:39:29;;;;;;;14.05;1.92;;;;;;;;;;5011043;28;20049;-68
2023/09/19 12:41:55;;;;;;;11.55;2.10;;;;;;;;;;5008406;28;20021;-64
2023/09/19 12:44:20;;;;;;;5.78;1.98;;;;;;;;;;5011201;28;20030;-65
2023/09/19 12:46:45;;;;;;;5.60;1.88;;;;;;;;;;5012947;28;20052;-65
2023/09/19 12:49:19;;;;;;;7.75;1.77;;;;;;;;;;5012595;28;20120;-67
2023/09/19 12:51:47;;;;;;;6.28;2.17;;;;;;;;;;5008019;28;20059;-68
2023/09/19 12:54:15;;;;;;;5.25;1.92;;;;;;;;;;5011965;28;20079;-65
2023/09/19 12:56:44;;;;;;;4.32;1.70;;;;;;;;;;5008514;28;20034;-67
2023/09/19 12:59:13;;;;;;;9.88;1.92;;;;;;;;;;5011121;28;20788;-62
2023/09/19 13:01:43;;;;;;;6.53;2.05;;;;;;;;;;5004546;28;20029;-65
2023/09/19 13:04:12;;;;;;;6.60;1.67;;;;;;;;;;4996442;28;20502;-66
2023/09/19 13:06:43;;;;;;;6.47;2.10;;;;;;;;;;5006207;28;20045;-65
2023/09/19 13:09:11;;;;;;;8.65;3.60;;;;;;;;;;5007265;28;20428;-65
2023/09/19 13:11:40;;;;;;;5.78;1.83;;;;;;;;;;4990927;28;20071;-68
2023/09/19 13:14:14;;;;;;;10.60;2.17;;;;;;;;;;5009636;28;20038;-66
2023/09/19 13:16:55;;;;;;;7.65;2.50;;;;;;;;;;5008410;28;20036;-68
2023/09/19 13:19:39;;;;;;;8.30;2.17;;;;;;;;;;5009544;28;20481;-68
2023/09/19 13:22:05;;;;;;;8.07;2.17;;;;;;;;;;5003456;28;20632;-66
2023/09/19 13:24:35;;;;;;;5.28;1.92;;;;;;;;;;5001528;28;20028;-66
2023/09/19 13:27:00;;;;;;;9.10;2.17;;;;;;;;;;5004646;28;20037;-65
2023/09/19 13:29:25;;;;;;;5.72;1.85;;;;;;;;;;5007417;28;20034;-62
2023/09/19 13:31:52;;;;;;;3.88;2.03;;;;;;;;;;5004385;28;20520;-65
2023/09/19 13:34:18;;;;;;;17.65;2.20;;;;;;;;;;5004859;28;20030;-63
2023/09/19 13:36:44;;;;;;;5.90;2.05;;;;;;;;;;5009127;28;20025;-67
2023/09/19 13:39:09;;;;;;;10.85;2.17;;;;;;;;;;5007176;28;20433;-65
2023/09/19 13:41:37;;;;;;;7.00;2.47;;;;;;;;;;5003127;28;20018;-66
2023/09/19 13:44:04;;;;;;;5.70;2.35;;;;;;;;;;4990529;28;20029;-66
2023/09/19 13:46:31;;;;;;;5.57;2.08;;;;;;;;;;5008456;28;20169;-63
2023/09/19 13:48:59;;;;;;;4.75;1.90;;;;;;;;;;5006914;28;20034;-68
2023/09/19 13:51:25;;;;;;;5.65;2.22;;;;;;;;;;5008659;28;20021;-65
2023/09/19 13:53:50;;;;;;;6.18;2.72;;;;;;;;;;4990659;28;20108;-66
2023/09/19 13:56:16;;;;;;;4.87;2.17;;;;;;;;;;5007195;28;20149;-62
2023/09/19 13:58:41;;;;;;;5.95;2.35;;;;;;;;;;5008938;28;20434;-67
2023/09/19 14:01:12;;;;;;;9.27;2.05;;;;;;;;;;5009042;28;20200;-66
2023/09/19 14:03:37;;;;;;;8.00;2.10;;;;;;;;;;4997324;28;20021;-65
2023/09/19 14:06:02;;;;;;;9.57;2.28;;;;;;;;;;5010603;28;20028;-66
2023/09/19 14:08:28;;;;;;;7.05;2.17;;;;;;;;;;5010712;28;20030;-65
2023/09/19 14:10:53;;;;;;;6.32;2.15;;;;;;;;;;5011746;28;20033;-65
2023/09/19 14:13:20;;;;;;;10.90;2.33;;;;;;;;;;5011262;28;20037;-63
2023/09/19 14:15:45;;;;;;;5.97;2.65;;;;;;;;;;5007420;28;20450;-64
2023/09/19 14:18:10;;;;;;;10.45;2.58;;;;;;;;;;5008642;28;20037;-67
2023/09/19 14:20:38;;;;;;;4.43;2.22;;;;;;;;;;5007994;28;20274;-63
2023/09/19 14:23:03;;;;;;;9.75;2.60;;;;;;;;;;5004168;28;20462;-65
2023/09/19 14:25:30;;;;;;;6.50;2.70;;;;;;;;;;5010246;28;20049;-61
2023/09/19 14:27:55;;;;;;;6.75;2.28;;;;;;;;;;5007556;28;20097;-67
2023/09/19 14:30:21;;;;;;;12.68;3.05;;;;;;;;;;5001046;28;20019;-65
2023/09/19 14:32:46;;;;;;;5.53;2.08;;;;;;;;;;5011174;28;20024;-65
2023/09/19 14:35:13;;;;;;;7.68;2.35;;;;;;;;;;5007582;28;20030;-66
2023/09/19 14:37:39;;;;;;;4.18;1.65;;;;;;;;;;5009477;28;20405;-68
2023/09/19 14:40:08;;;;;;;8.82;2.70;;;;;;;;;;4993101;28;20026;-66
2023/09/19 14:42:35;;;;;;;5.45;2.25;;;;;;;;;;4996372;28;20024;-67
2023/09/19 14:45:01;;;;;;;19.65;3.33;;;;;;;;;;5010890;28;20018;-66
2023/09/19 14:47:27;;;;;;;5.90;2.42;;;;;;;;;;5011570;28;20022;-64